Terminal Aerodrome Forecast
Issued by NWS Sterling, VA

Current Version | Previous Version | Graphics & Text | Print | Product List | Glossary On
Versions: 1 2 3 4 5 6 7 8 9 10 11 12 13 14 15 16 17 18 19 20 21 22 23 24 25 26 27 28 29
698
FTUS41 KLWX 221741
TAFDCA
TAF
KDCA 221741Z 2218/2318 14005KT P6SM OVC009
     FM221900 14005KT P6SM BKN015
     FM222100 13004KT P6SM VCSH BKN040
     FM230000 VRB04KT P6SM BKN040
     FM230400 35004KT P6SM BKN035
     FM231200 03006KT P6SM OVC035
     FM231600 05008KT P6SM OVC025=

USA.gov is the U.S. government's official web portal to all federal, state and local government web resources and services.